Hackettstown, NJ

7:06 AM EST on January 21, 2017 (GMT -0500)
Panther Valley - Bowers Glen Upper | | Change Station
Active Advisory: Storm Watch

Elev 925 ft 40.90 °N, 74.85 °W | Updated 21 seconds ago

Overcast
Overcast
37.6 °F
Feels Like 38 °F
N
0.0
Wind Variable Wind from ESE
Gusts 0.0 mph

Today
High -- | Low -- °F
--% Chance of Precip.
Yesterday
High -- | Low -- °F
Precip. -- in
Pressure 29.89 in
Visibility 3.0 miles
Clouds Overcast 800 ft
Windchill 38 °F
Dew Point 37 °F
Humidity 98%
Rainfall 0.00 in
Snow Depth Not available.
7:18 AM 5:03 PM
Waning Crescent, 35% visible
METAR KSMQ 211153Z AUTO 00000KT 3SM BR OVC008 05/04 A2988 RMK AO2 SLP121 70019 T00500039 10050 20044 53000
Pressure 29.89 in
Visibility 3.0 miles
Clouds Overcast 800 ft
Windchill 38 °F
Dew Point 37 °F
Humidity 98%
Rainfall 0.00 in
Snow Depth Not available.
7:18 AM 5:03 PM
Waning Crescent, 35% visible
METAR KSMQ 211153Z AUTO 00000KT 3SM BR OVC008 05/04 A2988 RMK AO2 SLP121 70019 T00500039 10050 20044 53000

Get Your Daily Forecast Email!

Thanks for signing up!

Be on the lookout for a verification email in your inbox.

You'll start receiving the daily forecast at 8 AM.

×

10-Day Weather Forecast

Almanac

Astronomy

Jan. 21, 2017 Rise Set
Actual Time
Civil Twilight
Nautical Twilight
Astronomical Twilight
Moon
Length of Visible Light
Length of Day
Tomorrow will be .
, % of the Moon is Illuminated

Today's Extremes

State Highs State Lows

Community

WunderPhotos

Upload Photos

1,962,540 photos uploaded!

WunderBlog® & News

Nearby

Air Quality

  Air Quality AQ Index Pollutant
Not available.

Snow Depth

Station Depth Elevation

Earthquake Activity

City Distance Mag. Time & Date
Minimum magnitude displayed is 2.5.

Coastal Water Temperatures

Place Temperature

Stations

Nearby Weather Stations

Station Location Temp. Windchill Dew Point Humidity Wind Precip. Elev Updated Type
                   

Watches & Warnings

Storm Watch
Issued: 5:22 AM EST Jan. 21, 2017 – National Weather Service

... Storm watch remains in effect from late Sunday night through
late Monday night...

* winds and seas... east winds 25 to 35 kt with gusts up to 55 kt.
Seas 4 to 6 feet on lower New York Bay, Raritan Bay, and
Gardiners Bay.

Precautionary/preparedness actions...

A storm watch is issued when the risk of storm force winds of
48 to 63 kt has significantly increased... but the specific timing
and/or location is still uncertain. It is intended to provide
additional lead time for mariners who may wish to consider
altering their plans.